ADDS METAR Data INFO
IDs: Format: Raw Decoded Include TAF

Data at: 0805 UTC 24 May 2018

KLVJ 240753Z AUTO 00000KT 10SM CLR 23/22 A3003 RMK AO2 SLP169 T02280222 $
KLVJ 240653Z AUTO 00000KT 10SM CLR 23/23 A3004 RMK AO2 SLP172 T02280228
KLVJ 240553Z AUTO 00000KT 10SM FEW024 23/23 A3005 RMK AO2 SLP176 T02330228 10272 20228 402780217 51009
KLVJ 240453Z AUTO 06003KT 10SM CLR 23/23 A3005 RMK AO2 SLP176 T02330228
KLVJ 240353Z AUTO 08005KT 10SM CLR 23/23 A3004 RMK AO2 SLP172 T02330228
KLVJ 240253Z AUTO 00000KT 10SM CLR 24/23 A3003 RMK AO2 SLP167 T02440233 53008
KLVJ 240153Z AUTO 09004KT 10SM CLR 25/23 A3001 RMK AO2 SLP161 T02500233
KLVJ 240053Z AUTO 09005KT 10SM FEW019 26/23 A3001 RMK AO2 SLP161 T02610228
KLVJ 232353Z AUTO 12008KT 10SM CLR 27/22 A3000 RMK AO2 SLP159 60024 T02720222 10272 20228 56010
KLVJ 232253Z AUTO 11004KT 10SM CLR 27/21 A3001 RMK AO2 SLP160 T02670211
KLVJ 232153Z AUTO 09009KT 10SM CLR 26/23 A3001 RMK AO2 SLP162 T02610228
KLVJ 232053Z AUTO 09005KT 10SM CLR 26/23 A3003 RMK AO2 RAE05 SLP169 P0000 60024 T02560228 56015
KLVJ 231953Z AUTO 11007KT 10SM -RA BKN036 OVC055 23/23 A3004 RMK AO2 TSE1856B22E38 SLP172 P0003 T02330228
KLVJ 231944Z AUTO 12007KT 6SM VCTS -RA BR FEW037 BKN047 OVC075 23/23 A3004 RMK AO2 TSE1856B22E38 P0003 T02330228
KLVJ 231928Z AUTO 11007KT 6SM TSRA BR BKN065 BKN085 BKN110 23/22 A3005 RMK AO2 LTG DSNT SE AND S TSE1856B22 PRESFR P0001 T02280217
KLVJ 231902Z AUTO 18004KT 10SM VCTS -RA FEW075 BKN110 23/21 A3007 RMK AO2 LTG DSNT SE TSE1856 P0000 T02280211
KLVJ 231853Z AUTO 15006KT 10SM -TSRA FEW070 BKN110 23/22 A3008 RMK AO2 LTG DSNT SE AND S RAE15B32 TSB41 SLP184 P0021 T02280217
KLVJ 231817Z AUTO 15008KT 10SM VCTS FEW017 BKN049 OVC070 23/22 A3010 RMK AO2 LTG DSNT ALQDS RAE15 P0021 T02330217
KLVJ 231809Z AUTO 17006KT 2SM VCTS -RA BR FEW017 BKN028 OVC070 23/22 A3010 RMK AO2 LTG DSNT ALQDS P0021 T02330217
KLVJ 231805Z AUTO 17003KT 1SM VCTS +RA BR FEW017 BKN031 OVC070 23/22 A3010 RMK AO2 LTG DSNT ALQDS P0021 T02330217
KLVJ 231757Z AUTO 15009G17KT 2 1/2SM VCTS +RA FEW017 BKN027 BKN032 24/21 A3010 RMK AO2 LTG DSNT ALQDS P0010 T02390211
KLVJ 231753Z AUTO 16010KT 10SM VCTS -RA FEW017 SCT027 BKN032 25/21 A3010 RMK AO2 LTG DSNT ALQDS RAB53 PRESRR SLP190 P0000 60000 T02500211 10278 20244 53013
KLVJ 231713Z AUTO 07007KT 10SM VCTS CLR 27/21 A3005 RMK AO2 LTG DSNT ALQDS T02670206
KLVJ 231653Z AUTO 10006KT 10SM CLR 26/19 A3006 RMK AO2 LTG DSNT NE AND E AND SW SLP177 T02560194
KLVJ 231553Z AUTO 06004KT 10SM 25/22 A3006 RMK AO2 LTG DSNT ALQDS SLP178 T02500217 $
KLVJ 231550Z AUTO 06004KT 10SM 24/22 A3006 RMK AO2 LTG DSNT ALQDS $
KLVJ 231531Z AUTO 06004KT VCTS 24/21 A3005 RMK AO2 LTG DSNT ALQDS T02440211 $
KLVJ 231453Z AUTO 08007KT 10SM VCTS FEW120 25/21 A3006 RMK AO2 LTG DSNT N AND SE SLP177 T02500211 51019
KLVJ 231438Z AUTO 10008KT 10SM VCTS FEW020 SCT030 BKN110 26/21 A3006 RMK AO2 LTG DSNT N AND E T02560206
KLVJ 231425Z AUTO 14008KT 10SM VCTS BKN020 BKN028 BKN110 26/21 A3005 RMK AO2 LTG DSNT N AND E T02610211
KLVJ 231415Z AUTO 13005KT 10SM BKN020 BKN030 27/23 A3005 RMK AO2 LTG DSNT N AND E T02720233
KLVJ 231406Z AUTO 11005KT 10SM SCT019 SCT026 BKN060 27/24 A3004 RMK AO2 T02720239
KLVJ 231353Z AUTO 10005KT 10SM VCTS FEW017 SCT024 BKN034 28/24 A3004 RMK AO2 LTG DSNT E SLP172 T02780239
KLVJ 231253Z AUTO 06003KT 10SM CLR 26/24 A3002 RMK AO2 SLP165 T02560239
KLVJ 231153Z AUTO 00000KT 10SM CLR 23/22 A3000 RMK AO2 SLP158 T02280222 10239 20217 53008
KLVJ 231053Z AUTO 00000KT 10SM FEW019 22/22 A2998 RMK AO2 SLP152 T02170217
KLVJ 230953Z AUTO 00000KT 10SM CLR 22/22 A2998 RMK AO2 SLP151 T02220217
KLVJ 230853Z AUTO 00000KT 10SM CLR 23/22 A2998 RMK AO2 SLP150 T02280222 58008
KLVJ 230753Z AUTO 00000KT 10SM CLR 23/22 A2998 RMK AO2 SLP152 T02280222
KLVJ 230653Z AUTO 00000KT 10SM FEW022 23/22 A2999 RMK AO2 SLP156 T02280222
KLVJ 230553Z AUTO 00000KT 10SM CLR 23/22 A3000 RMK AO2 SLP158 T02330222 10283 20233 403110217 50006
KLVJ 230453Z AUTO 00000KT 10SM FEW019 24/23 A3001 RMK AO2 SLP161 T02390228
KLVJ 230353Z AUTO 00000KT 10SM SCT021 24/23 A3000 RMK AO2 SLP159 T02440233
KLVJ 230253Z AUTO 00000KT 10SM CLR 26/23 A2998 RMK AO2 SLP152 T02560233 51018
KLVJ 230153Z AUTO 13004KT 10SM CLR 27/23 A2997 RMK AO2 SLP147 T02670233
KLVJ 230053Z AUTO 16004KT 10SM CLR 28/22 A2995 RMK AO2 SLP141 T02780222
KLVJ 222353Z AUTO 16007KT 10SM CLR 28/22 A2993 RMK AO2 SLP133 60000 T02830217 10311 20278 58011
KLVJ 222253Z AUTO 15007KT 10SM FEW034 29/22 A2994 RMK AO2 LTG DSNT N SLP138 T02890217
KLVJ 222153Z AUTO VRB04KT 10SM BKN036 28/22 A2996 RMK AO2 TSB25E40 SLP144 T02780217
KLVJ 222146Z AUTO 16007KT 10SM BKN034 29/22 A2996 RMK AO2 LTG DSNT SW TSB25E40 T02940217
KLVJ 222131Z AUTO 15008KT 10SM TS FEW036 29/22 A2995 RMK AO2 LTG DSNT N AND SW TSB25 T02940217
KLVJ 222053Z AUTO 13010KT 10SM VCTS CLR 30/21 A2996 RMK AO2 LTG DSNT N TSE1955 SLP144 60000 T03000211 56015
KLVJ 222040Z AUTO 14009KT 10SM VCTS CLR 29/21 A2996 RMK AO2 LTG DSNT NW TSE1955 T02940211
KLVJ 222027Z AUTO 14008KT 10SM FEW045 SCT070 30/21 A2997 RMK AO2 LTG DSNT W AND NW TSE1955 T03000206